This is the latest recevied weather packets stored in our database for station/object HB9TJR-3. If no packets are shown the sender has not sent any weather packets the latest 10 day(s).
| Time | Temp. | Humidity | Pressure | Rain* | Wind** | Luminosity | Snow |
|---|---|---|---|---|---|---|---|
| 1787560291 | 18.33° C | 58% | 869.4 hPa | 0 mm | - | - | - |
| 1787559331 | 18.33° C | 60% | 869.4 hPa | 0 mm | - | - | - |
| 1787558371 | 17.78° C | 63% | 869.4 hPa | 0 mm | - | - | - |
| 1787557412 | 17.22° C | 65% | 869.4 hPa | 0 mm | - | - | - |
| 1787555491 | 16.67° C | 73% | 869.6 hPa | 0 mm | - | - | - |
| 1787554569 | 16.67° C | 73% | 869.7 hPa | 0 mm | - | - | - |
| 1787554531 | 16.67° C | 73% | 869.7 hPa | 0 mm | - | - | - |
| 1787552611 | 16.11° C | 74% | 869.5 hPa | 0 mm | - | - | - |
| 1787551651 | 16.11° C | 72% | 869.5 hPa | 0 mm | - | - | - |
| 1787550691 | 16.11° C | 69% | 869.6 hPa | 0 mm | - | - | - |
| 1787549731 | 15.56° C | 73% | 869.8 hPa | 0 mm | - | - | - |
| 1787548770 | 15° C | 74% | 869.8 hPa | 0 mm | - | - | - |
| 1787547811 | 15° C | 75% | 869.8 hPa | 0 mm | - | - | - |
| 1787546851 | 15° C | 76% | 869.6 hPa | 0 mm | - | - | - |
| 1787545891 | 15° C | 79% | 869.7 hPa | 0 mm | - | - | - |
| 1787543971 | 15° C | 80% | 869.7 hPa | 0 mm | - | - | - |
| 1787541091 | 15° C | 75% | 870.1 hPa | 0 mm | - | - | - |
| 1787540131 | 14.44° C | 75% | 869.8 hPa | 0 mm | - | - | - |
| 1787539171 | 15.56° C | 73% | 870 hPa | 0 mm | - | - | - |
| 1787538211 | 15.56° C | 73% | 870 hPa | 0 mm | - | - | - |
| 1787537251 | 15.56° C | 72% | 870.1 hPa | 0 mm | - | - | - |
| 1787536291 | 15.56° C | 72% | 870.1 hPa | 0 mm | - | - | - |
| 1787535331 | 15.56° C | 71% | 870.2 hPa | 0 mm | - | - | - |
| 1787533411 | 15° C | 72% | 870.3 hPa | 0 mm | - | - | - |
| 1787532451 | 15° C | 72% | 870.2 hPa | 0 mm | - | - | - |
* Rain latest hour (hover to see other rain measurements)
** Current wind speed in m/s (hover to see current wind gust speed)